createdAt,value
2022-12-25T00:01:33.533Z,2.60
2022-12-25T00:04:00.762Z,2.30
2022-12-25T00:06:28.158Z,1.73
2022-12-25T00:08:55.277Z,2.35
2022-12-25T00:11:22.716Z,1.98
2022-12-25T00:13:50.247Z,2.03
2022-12-25T00:16:21.623Z,1.77
2022-12-25T00:18:50.000Z,2.17
2022-12-25T00:21:18.934Z,2.17
2022-12-25T00:23:46.240Z,2.08
2022-12-25T00:26:17.895Z,2.28
2022-12-25T00:28:45.315Z,1.98
2022-12-25T00:31:16.638Z,1.67
2022-12-25T00:33:46.501Z,2.03
2022-12-25T00:36:16.199Z,1.50
2022-12-25T00:38:43.885Z,1.50
2022-12-25T00:41:15.123Z,1.80
2022-12-25T00:43:43.333Z,1.40
2022-12-25T00:46:13.324Z,1.52
2022-12-25T00:48:41.116Z,1.73
2022-12-25T00:51:11.284Z,1.42
2022-12-25T00:53:38.552Z,1.58
2022-12-25T00:56:08.149Z,1.17
2022-12-25T00:58:36.252Z,1.23
2022-12-25T01:01:04.398Z,0.90
2022-12-25T01:03:31.632Z,1.38
2022-12-25T01:06:02.631Z,1.13
2022-12-25T01:08:34.031Z,0.83
2022-12-25T01:11:08.199Z,1.15
2022-12-25T01:13:37.560Z,1.30
2022-12-25T01:16:11.776Z,0.77
2022-12-25T01:18:39.310Z,0.93
2022-12-25T01:21:21.148Z,1.20
2022-12-25T01:23:51.048Z,1.02
2022-12-25T01:26:21.446Z,0.93
2022-12-25T01:28:49.940Z,1.00
2022-12-25T01:31:20.074Z,0.85
2022-12-25T01:33:47.669Z,1.43
2022-12-25T01:36:17.398Z,1.27
2022-12-25T01:38:45.716Z,0.75
2022-12-25T01:41:15.248Z,1.10
2022-12-25T01:44:15.803Z,0.90
2022-12-25T01:46:43.995Z,0.80
2022-12-25T01:49:23.040Z,1.17
2022-12-25T01:52:04.298Z,1.10
2022-12-25T01:54:44.051Z,1.35
2022-12-25T01:57:20.671Z,0.90
2022-12-25T01:59:49.097Z,0.93
2022-12-25T02:02:16.515Z,1.10
2022-12-25T02:05:14.244Z,0.93
2022-12-25T02:07:42.543Z,0.90
2022-12-25T02:10:11.658Z,1.70
2022-12-25T02:12:40.196Z,1.00
2022-12-25T02:15:13.024Z,0.90
2022-12-25T02:18:03.189Z,0.75
2022-12-25T02:21:11.296Z,1.02
2022-12-25T02:24:02.467Z,1.15
2022-12-25T02:26:55.709Z,0.80
2022-12-25T02:29:43.911Z,1.08
2022-12-25T02:33:14.798Z,1.10
2022-12-25T02:35:46.855Z,1.00
2022-12-25T02:38:24.708Z,0.98
2022-12-25T02:40:58.287Z,0.93
2022-12-25T02:43:53.305Z,0.82
2022-12-25T02:46:42.859Z,1.10
2022-12-25T02:49:42.485Z,0.93
2022-12-25T02:52:34.439Z,1.25
2022-12-25T02:55:41.871Z,0.93
2022-12-25T02:58:35.716Z,0.80
2022-12-25T03:01:36.426Z,0.90
2022-12-25T03:04:28.902Z,1.25
2022-12-25T03:07:21.557Z,1.33
2022-12-25T03:10:25.284Z,0.93
2022-12-25T03:13:11.881Z,1.25
2022-12-25T03:15:57.785Z,1.15
2022-12-25T03:18:28.479Z,1.23
2022-12-25T03:21:14.991Z,1.35
2022-12-25T03:24:08.397Z,1.23
2022-12-25T03:26:54.379Z,1.23
2022-12-25T03:29:47.908Z,1.00
2022-12-25T03:32:45.295Z,1.33
2022-12-25T03:35:44.562Z,1.20
2022-12-25T03:38:52.080Z,1.20
2022-12-25T03:42:03.591Z,1.48
2022-12-25T03:44:53.234Z,1.38
2022-12-25T03:47:35.507Z,1.20
2022-12-25T03:50:34.225Z,1.52
2022-12-25T03:53:28.881Z,1.70
2022-12-25T03:56:16.026Z,1.88
2022-12-25T03:59:21.057Z,1.50
2022-12-25T04:02:10.399Z,1.55
2022-12-25T04:04:56.574Z,2.00
2022-12-25T04:07:42.621Z,2.60
2022-12-25T04:10:29.344Z,2.67
2022-12-25T04:13:15.502Z,3.08
2022-12-25T04:16:01.042Z,2.70
2022-12-25T04:18:47.049Z,3.20
2022-12-25T04:21:33.078Z,2.47
2022-12-25T04:24:19.157Z,2.80
2022-12-25T04:27:12.443Z,2.45
2022-12-25T04:29:58.331Z,2.58
2022-12-25T04:32:44.001Z,2.28
2022-12-25T04:35:30.376Z,2.10
2022-12-25T04:37:57.703Z,1.85
2022-12-25T04:40:25.116Z,1.90
2022-12-25T04:42:53.218Z,1.95
2022-12-25T04:45:20.762Z,2.28
2022-12-25T04:47:47.995Z,2.27
2022-12-25T04:50:15.367Z,2.10
2022-12-25T04:52:42.829Z,2.00
2022-12-25T04:55:12.011Z,2.38
2022-12-25T04:57:39.129Z,2.20
2022-12-25T05:00:07.653Z,2.00
2022-12-25T05:02:35.090Z,1.90
2022-12-25T05:05:02.476Z,2.15
2022-12-25T05:07:29.662Z,2.13
2022-12-25T05:09:56.851Z,2.28
2022-12-25T05:12:24.326Z,1.87
2022-12-25T05:14:51.415Z,1.98
2022-12-25T05:17:18.599Z,1.77
2022-12-25T05:19:45.685Z,1.70
2022-12-25T05:22:12.756Z,2.05
2022-12-25T05:24:39.825Z,2.17
2022-12-25T05:27:06.937Z,1.98
2022-12-25T05:29:34.025Z,1.48
2022-12-25T05:32:01.579Z,2.00
2022-12-25T05:34:28.704Z,1.92
2022-12-25T05:36:56.688Z,2.40
2022-12-25T05:39:24.246Z,1.52
2022-12-25T05:41:51.400Z,1.58
2022-12-25T05:44:18.477Z,1.88
2022-12-25T05:46:45.632Z,2.45
2022-12-25T05:49:13.197Z,1.67
2022-12-25T05:51:40.424Z,1.70
2022-12-25T05:54:07.547Z,1.77
2022-12-25T05:56:34.977Z,2.20
2022-12-25T05:59:02.118Z,2.45
2022-12-25T06:01:29.559Z,1.70
2022-12-25T06:03:57.713Z,2.17
2022-12-25T06:06:25.053Z,1.52
2022-12-25T06:08:55.243Z,1.70
2022-12-25T06:11:22.477Z,2.22
2022-12-25T06:13:51.912Z,1.70
2022-12-25T06:16:19.933Z,1.77
2022-12-25T06:18:50.142Z,1.60
2022-12-25T06:21:17.220Z,1.55
2022-12-25T06:23:45.105Z,1.95
2022-12-25T06:26:18.045Z,1.47
2022-12-25T06:28:45.555Z,1.48
2022-12-25T06:31:20.307Z,1.52
2022-12-25T06:33:48.570Z,1.45
2022-12-25T06:36:27.152Z,1.70
2022-12-25T06:38:54.630Z,1.80
2022-12-25T06:41:25.303Z,1.92
2022-12-25T06:43:55.383Z,1.85
2022-12-25T06:46:25.379Z,1.13
2022-12-25T06:48:52.582Z,1.42
2022-12-25T06:51:30.366Z,1.97
2022-12-25T06:53:59.044Z,1.77
2022-12-25T06:56:28.628Z,1.95
2022-12-25T06:59:05.113Z,1.90
2022-12-25T07:01:46.917Z,1.60
2022-12-25T07:04:39.488Z,1.87
2022-12-25T07:07:09.804Z,1.45
2022-12-25T07:09:39.201Z,1.75
2022-12-25T07:12:24.286Z,1.45
2022-12-25T07:14:55.416Z,2.03
2022-12-25T07:17:23.913Z,1.97
2022-12-25T07:19:51.435Z,2.00
2022-12-25T07:22:18.899Z,1.65
2022-12-25T07:24:45.962Z,1.95
2022-12-25T07:27:13.324Z,1.85
2022-12-25T07:29:40.603Z,1.67
2022-12-25T07:32:08.377Z,1.70
2022-12-25T07:34:35.495Z,1.33
2022-12-25T07:37:02.989Z,1.80
2022-12-25T07:39:30.437Z,1.63
2022-12-25T07:41:59.787Z,1.63
2022-12-25T07:44:28.127Z,2.30
2022-12-25T07:46:55.281Z,1.73
2022-12-25T07:49:22.502Z,1.45
2022-12-25T07:51:49.595Z,1.70
2022-12-25T07:54:16.810Z,1.80
2022-12-25T07:56:43.863Z,1.60
2022-12-25T07:59:11.018Z,1.48
2022-12-25T08:01:38.255Z,1.40
2022-12-25T08:04:05.612Z,1.77
2022-12-25T08:06:35.435Z,1.70
2022-12-25T08:09:08.357Z,2.10
2022-12-25T08:11:36.423Z,2.13
2022-12-25T08:14:09.318Z,1.20
2022-12-25T08:16:39.790Z,1.40
2022-12-25T08:19:08.277Z,1.67
2022-12-25T08:21:35.401Z,1.70
2022-12-25T08:24:03.289Z,1.42
2022-12-25T08:26:30.721Z,1.40
2022-12-25T08:28:57.919Z,2.50
2022-12-25T08:31:29.032Z,2.70
2022-12-25T08:33:58.520Z,1.92
2022-12-25T08:36:26.327Z,1.52
2022-12-25T08:39:00.276Z,1.25
2022-12-25T08:41:30.161Z,1.70
2022-12-25T08:43:57.431Z,1.60
2022-12-25T08:46:24.869Z,1.88
2022-12-25T08:48:52.058Z,1.85
2022-12-25T08:51:21.536Z,1.90
2022-12-25T08:53:51.327Z,2.53
2022-12-25T08:56:19.909Z,2.20
2022-12-25T08:58:47.329Z,2.42
2022-12-25T09:01:14.613Z,2.67
2022-12-25T09:03:43.020Z,3.03
2022-12-25T09:06:15.088Z,3.95
2022-12-25T09:08:48.675Z,3.43
2022-12-25T09:11:18.834Z,3.28
2022-12-25T09:13:46.675Z,2.97
2022-12-25T09:16:17.922Z,3.05
2022-12-25T09:18:45.186Z,3.08
2022-12-25T09:21:14.906Z,2.53
2022-12-25T09:23:42.741Z,2.65
2022-12-25T09:26:14.234Z,2.42
2022-12-25T09:28:48.438Z,2.78
2022-12-25T09:31:17.730Z,3.10
2022-12-25T09:33:44.877Z,2.90
2022-12-25T09:36:12.489Z,3.47
2022-12-25T09:38:39.929Z,3.03
2022-12-25T09:41:45.042Z,3.35
2022-12-25T09:44:25.682Z,6.82
2022-12-25T09:47:26.141Z,6.33
2022-12-25T09:50:16.118Z,7.85
2022-12-25T09:52:57.541Z,7.30
2022-12-25T09:55:27.323Z,6.35
2022-12-25T09:58:02.637Z,5.18
2022-12-25T10:00:38.783Z,4.87
2022-12-25T10:03:44.419Z,3.78
2022-12-25T10:06:27.791Z,3.47
2022-12-25T10:09:22.923Z,3.17
2022-12-25T10:12:10.782Z,3.58
2022-12-25T10:15:21.994Z,3.17
2022-12-25T10:18:23.650Z,4.05
2022-12-25T10:20:53.014Z,2.78
2022-12-25T10:23:30.649Z,2.60
2022-12-25T10:25:57.832Z,2.83
2022-12-25T10:28:39.010Z,2.67
2022-12-25T10:31:22.856Z,3.30
2022-12-25T10:33:53.171Z,3.80
2022-12-25T10:36:27.797Z,3.40
2022-12-25T10:38:56.082Z,3.47
2022-12-25T10:41:41.682Z,2.17
2022-12-25T10:44:21.231Z,3.10
2022-12-25T10:46:51.504Z,3.53
2022-12-25T10:49:22.780Z,3.80
2022-12-25T10:51:51.196Z,4.38
2022-12-25T10:54:33.498Z,3.70
2022-12-25T10:57:07.632Z,3.08
2022-12-25T10:59:42.921Z,3.55
2022-12-25T11:02:38.230Z,3.08
2022-12-25T11:05:10.104Z,3.47
2022-12-25T11:07:50.976Z,3.40
2022-12-25T11:10:38.943Z,3.60
2022-12-25T11:13:08.796Z,3.90
2022-12-25T11:15:38.828Z,6.28
2022-12-25T11:18:26.705Z,5.13
2022-12-25T11:21:00.366Z,3.67
2022-12-25T11:23:31.486Z,3.88
2022-12-25T11:26:05.342Z,3.60
2022-12-25T11:28:36.519Z,2.60
2022-12-25T11:31:14.856Z,2.50
2022-12-25T11:33:51.056Z,2.30
2022-12-25T11:36:50.871Z,2.80
2022-12-25T11:39:35.672Z,3.72
2022-12-25T11:42:18.914Z,4.10
2022-12-25T11:45:08.861Z,6.40
2022-12-25T11:48:04.445Z,3.40
2022-12-25T11:50:47.252Z,3.10
2022-12-25T11:53:35.047Z,2.67
2022-12-25T11:56:21.009Z,3.00
2022-12-25T11:59:14.943Z,2.53
2022-12-25T12:02:25.993Z,6.37
2022-12-25T12:05:42.743Z,5.75
2022-12-25T12:08:11.238Z,5.63
2022-12-25T12:11:20.599Z,5.55
2022-12-25T12:14:10.427Z,4.50
2022-12-25T12:16:37.753Z,2.80
2022-12-25T12:19:26.353Z,3.58
2022-12-25T12:21:59.191Z,4.63
2022-12-25T12:24:40.786Z,6.35
2022-12-25T12:27:34.119Z,4.90
2022-12-25T12:30:01.575Z,3.63
2022-12-25T12:32:44.360Z,4.35
2022-12-25T12:35:19.724Z,3.70
2022-12-25T12:37:54.381Z,2.85
2022-12-25T12:40:39.889Z,3.38
2022-12-25T12:43:27.591Z,3.13
2022-12-25T12:45:59.279Z,2.80
2022-12-25T12:48:29.363Z,3.88
2022-12-25T12:51:10.179Z,3.60
2022-12-25T12:53:40.788Z,4.03
2022-12-25T12:56:19.697Z,3.90
2022-12-25T12:58:51.076Z,4.55
2022-12-25T13:01:58.212Z,4.28
2022-12-25T13:04:42.727Z,5.47
2022-12-25T13:07:45.135Z,7.00
2022-12-25T13:10:39.489Z,9.90
2022-12-25T13:13:25.080Z,9.93
2022-12-25T13:15:52.854Z,10.57
2022-12-25T13:18:20.975Z,11.30
2022-12-25T13:20:58.130Z,8.88
2022-12-25T13:23:32.382Z,8.70
2022-12-25T13:26:04.109Z,9.57
2022-12-25T13:28:36.792Z,10.45
2022-12-25T13:31:05.208Z,10.90
2022-12-25T13:33:33.258Z,10.27
2022-12-25T13:36:00.593Z,8.50
2022-12-25T13:38:29.343Z,9.05
2022-12-25T13:41:16.007Z,9.77
2022-12-25T13:43:44.559Z,8.68
2022-12-25T13:46:15.668Z,7.60
2022-12-25T13:48:43.461Z,8.50
2022-12-25T13:51:16.956Z,7.82
2022-12-25T13:53:44.570Z,8.45
2022-12-25T13:56:16.305Z,7.35
2022-12-25T13:58:46.219Z,7.55
2022-12-25T14:01:16.872Z,6.57
2022-12-25T14:03:46.883Z,5.80
2022-12-25T14:06:24.696Z,6.38
2022-12-25T14:08:53.411Z,5.10
2022-12-25T14:11:24.267Z,5.40
2022-12-25T14:14:18.229Z,4.93
2022-12-25T14:16:51.218Z,5.75
2022-12-25T14:19:33.906Z,5.13
2022-12-25T14:22:18.867Z,4.90
2022-12-25T14:24:46.647Z,4.38
2022-12-25T14:27:30.399Z,4.47
2022-12-25T14:29:59.778Z,4.25
2022-12-25T14:32:31.684Z,4.28
2022-12-25T14:35:04.806Z,5.00
2022-12-25T14:37:34.103Z,4.63
2022-12-25T14:40:31.581Z,3.83
2022-12-25T14:43:25.972Z,3.78
2022-12-25T14:46:00.828Z,3.83
2022-12-25T14:48:31.332Z,3.67
2022-12-25T14:51:07.521Z,3.70
2022-12-25T14:53:49.458Z,4.03
2022-12-25T14:56:22.568Z,3.55
2022-12-25T14:59:00.300Z,3.72
2022-12-25T15:01:41.143Z,4.22
2022-12-25T15:04:11.336Z,3.63
2022-12-25T15:07:09.681Z,3.33
2022-12-25T15:09:37.811Z,3.03
2022-12-25T15:12:05.357Z,3.65
2022-12-25T15:14:32.432Z,3.10
2022-12-25T15:17:01.483Z,3.33
2022-12-25T15:19:37.864Z,3.63
2022-12-25T15:22:06.336Z,3.90
2022-12-25T15:24:33.480Z,3.38
2022-12-25T15:27:00.987Z,3.35
2022-12-25T15:32:21.928Z,3.47
2022-12-25T15:34:50.245Z,3.75
2022-12-25T15:37:20.431Z,3.28
2022-12-25T15:39:47.529Z,3.33
2022-12-25T15:42:19.515Z,3.95
2022-12-25T15:44:46.913Z,3.20
2022-12-25T15:47:16.356Z,3.83
2022-12-25T15:49:43.681Z,3.10
2022-12-25T15:52:16.920Z,3.90
2022-12-25T15:54:44.333Z,3.90
2022-12-25T15:57:20.534Z,3.63
2022-12-25T15:59:47.863Z,3.95
2022-12-25T16:02:19.307Z,3.50
2022-12-25T16:04:47.232Z,5.45
2022-12-25T16:07:17.664Z,5.55
2022-12-25T16:09:45.127Z,4.70
2022-12-25T16:12:12.534Z,4.22
2022-12-25T16:14:39.598Z,4.47
2022-12-25T16:17:06.762Z,3.90
2022-12-25T16:19:33.975Z,3.70
2022-12-25T16:22:01.174Z,3.67
2022-12-25T16:24:28.248Z,5.03
2022-12-25T16:26:55.369Z,4.28
2022-12-25T16:29:22.421Z,5.70
2022-12-25T16:31:49.493Z,4.25
2022-12-25T16:34:16.570Z,4.17
2022-12-25T16:36:43.662Z,4.40
2022-12-25T16:39:10.768Z,3.72
2022-12-25T16:41:37.861Z,3.75
2022-12-25T16:44:10.248Z,4.68
2022-12-25T16:46:40.017Z,4.27
2022-12-25T16:49:07.342Z,4.03
2022-12-25T16:51:34.561Z,4.35
2022-12-25T16:54:01.740Z,4.13
2022-12-25T16:56:30.741Z,4.18
2022-12-25T16:58:58.967Z,4.83
2022-12-25T17:01:26.234Z,3.97
2022-12-25T17:03:53.534Z,4.00
2022-12-25T17:06:28.251Z,4.18
2022-12-25T17:08:58.882Z,4.35
2022-12-25T17:11:30.390Z,5.53
2022-12-25T17:14:01.975Z,4.30
2022-12-25T17:16:35.764Z,3.63
2022-12-25T17:19:15.960Z,4.43
2022-12-25T17:21:43.156Z,4.70
2022-12-25T17:24:10.685Z,3.57
2022-12-25T17:26:38.067Z,3.70
2022-12-25T17:29:05.211Z,4.05
2022-12-25T17:31:32.537Z,3.83
2022-12-25T17:34:02.118Z,3.67
2022-12-25T17:36:29.838Z,3.70
2022-12-25T17:38:59.689Z,4.70
2022-12-25T17:41:27.113Z,3.83
2022-12-25T17:43:54.336Z,4.20
2022-12-25T17:46:25.582Z,4.25
2022-12-25T17:48:56.628Z,4.03
2022-12-25T17:51:26.454Z,3.90
2022-12-25T17:53:57.083Z,4.47
2022-12-25T17:56:25.396Z,4.10
2022-12-25T17:58:59.217Z,3.83
2022-12-25T18:01:28.722Z,4.03
2022-12-25T18:03:56.194Z,5.15
2022-12-25T18:06:26.081Z,5.05
2022-12-25T18:08:55.805Z,4.13
2022-12-25T18:11:29.128Z,4.47
2022-12-25T18:13:58.237Z,3.67
2022-12-25T18:16:27.470Z,4.00
2022-12-25T18:18:54.691Z,4.78
2022-12-25T18:21:23.183Z,4.60
2022-12-25T18:23:50.936Z,6.07
2022-12-25T18:26:20.212Z,5.37
2022-12-25T18:28:48.997Z,4.50
2022-12-25T18:31:27.229Z,4.53
2022-12-25T18:33:54.804Z,4.57
2022-12-25T18:36:25.918Z,4.85
2022-12-25T18:38:55.354Z,5.37
2022-12-25T18:41:22.999Z,5.80
2022-12-25T18:43:54.148Z,5.88
2022-12-25T18:46:27.619Z,5.85
2022-12-25T18:48:56.740Z,4.78
2022-12-25T18:51:24.557Z,4.43
2022-12-25T18:53:51.749Z,5.07
2022-12-25T18:56:20.177Z,4.70
2022-12-25T18:58:48.072Z,5.43
2022-12-25T19:01:21.986Z,5.03
2022-12-25T19:03:51.574Z,4.57
2022-12-25T19:06:28.716Z,4.18
2022-12-25T19:08:56.379Z,4.25
2022-12-25T19:11:23.502Z,3.92
2022-12-25T19:13:50.613Z,4.25
2022-12-25T19:16:18.247Z,4.57
2022-12-25T19:18:45.997Z,4.75
2022-12-25T19:21:13.196Z,4.70
2022-12-25T19:23:40.582Z,6.20
2022-12-25T19:26:09.526Z,5.40
2022-12-25T19:28:38.059Z,5.53
2022-12-25T19:31:07.928Z,4.28
2022-12-25T19:33:37.204Z,4.97
2022-12-25T19:36:11.648Z,5.28
2022-12-25T19:38:39.092Z,6.15
2022-12-25T19:41:15.046Z,5.53
2022-12-25T19:43:44.428Z,5.90
2022-12-25T19:46:28.738Z,6.82
2022-12-25T19:48:56.528Z,6.70
2022-12-25T19:51:27.750Z,10.15
2022-12-25T19:53:56.361Z,10.43
2022-12-25T19:56:24.831Z,8.82
2022-12-25T19:58:52.037Z,5.97
2022-12-25T20:01:21.872Z,6.47
2022-12-25T20:03:49.986Z,7.60
2022-12-25T20:06:27.986Z,6.03
2022-12-25T20:08:59.499Z,5.22
2022-12-25T20:11:29.150Z,8.07
2022-12-25T20:13:56.863Z,3.63
2022-12-25T20:16:26.049Z,3.20
2022-12-25T20:18:54.382Z,3.60
2022-12-25T20:21:23.751Z,3.35
2022-12-25T20:23:52.521Z,3.75
2022-12-25T20:26:24.016Z,4.72
2022-12-25T20:28:51.805Z,5.28
2022-12-25T20:31:20.955Z,6.10
2022-12-25T20:33:48.241Z,4.47
2022-12-25T20:36:15.994Z,6.20
2022-12-25T20:38:43.067Z,4.20
2022-12-25T20:41:30.190Z,7.47
2022-12-25T20:43:58.123Z,5.37
2022-12-25T20:46:25.895Z,6.93
2022-12-25T20:48:54.274Z,8.25
2022-12-25T20:51:25.098Z,5.32
2022-12-25T20:53:53.298Z,5.00
2022-12-25T20:56:24.582Z,5.47
2022-12-25T20:59:00.127Z,4.88
2022-12-25T21:01:29.652Z,5.72
2022-12-25T21:03:58.648Z,7.57
2022-12-25T21:06:26.516Z,4.63
2022-12-25T21:08:53.769Z,4.53
2022-12-25T21:11:21.610Z,4.97
2022-12-25T21:13:49.196Z,4.90
2022-12-25T21:16:20.811Z,5.57
2022-12-25T21:18:49.878Z,5.68
2022-12-25T21:21:17.055Z,5.60
2022-12-25T21:23:45.638Z,5.63
2022-12-25T21:26:18.985Z,5.30
2022-12-25T21:28:48.681Z,5.15
2022-12-25T21:31:16.601Z,5.70
2022-12-25T21:33:53.312Z,5.67
2022-12-25T21:36:41.440Z,5.13
2022-12-25T21:39:10.006Z,5.35
2022-12-25T21:41:38.768Z,5.28
2022-12-25T21:44:07.136Z,6.47
2022-12-25T21:46:34.802Z,3.63
2022-12-25T21:49:02.261Z,5.28
2022-12-25T21:51:51.441Z,5.35
2022-12-25T21:54:21.409Z,3.92
2022-12-25T21:56:50.269Z,4.35
2022-12-25T21:59:21.874Z,4.17
2022-12-25T22:01:51.043Z,3.75
2022-12-25T22:04:21.263Z,5.38
2022-12-25T22:07:07.162Z,4.03
2022-12-25T22:09:34.715Z,4.22
2022-12-25T22:12:21.804Z,4.30
2022-12-25T22:14:59.190Z,5.93
2022-12-25T22:17:51.748Z,4.88
2022-12-25T22:20:22.472Z,4.65
2022-12-25T22:22:50.128Z,3.65
2022-12-25T22:25:17.928Z,4.60
2022-12-25T22:27:46.831Z,4.32
2022-12-25T22:30:26.173Z,4.60
2022-12-25T22:32:54.106Z,3.83
2022-12-25T22:35:22.394Z,4.00
2022-12-25T22:37:49.923Z,4.50
2022-12-25T22:40:19.464Z,4.80
2022-12-25T22:42:47.266Z,4.95
2022-12-25T22:45:15.128Z,5.55
2022-12-25T22:47:42.457Z,4.63
2022-12-25T22:50:17.606Z,4.77
2022-12-25T22:52:45.895Z,4.32
2022-12-25T22:55:18.648Z,5.35
2022-12-25T22:57:46.123Z,5.75
2022-12-25T23:00:14.249Z,5.05
2022-12-25T23:02:41.473Z,5.43
2022-12-25T23:05:09.303Z,6.75
2022-12-25T23:07:36.432Z,5.28
2022-12-25T23:10:05.578Z,5.80
2022-12-25T23:12:50.938Z,5.75
2022-12-25T23:15:18.190Z,5.50
2022-12-25T23:18:03.991Z,4.68
2022-12-25T23:20:51.378Z,5.32
2022-12-25T23:23:37.283Z,5.78
2022-12-25T23:26:07.563Z,7.78
2022-12-25T23:29:00.942Z,8.40
2022-12-25T23:31:39.598Z,6.05
2022-12-25T23:34:07.565Z,5.45
2022-12-25T23:36:35.015Z,5.45
2022-12-25T23:39:09.763Z,5.25
2022-12-25T23:41:42.930Z,4.87
2022-12-25T23:44:12.084Z,4.75
2022-12-25T23:46:39.776Z,4.97
2022-12-25T23:49:07.485Z,5.00
2022-12-25T23:51:39.819Z,5.47
2022-12-25T23:54:07.793Z,5.10
2022-12-25T23:56:35.002Z,5.63
2022-12-25T23:59:03.362Z,5.47
